createdAt,value
2019-04-07T00:00:50.468Z,47.20
2019-04-07T00:03:17.526Z,46.42
2019-04-07T00:05:44.698Z,46.68
2019-04-07T00:08:15.127Z,42.30
2019-04-07T00:10:42.582Z,49.60
2019-04-07T00:13:09.980Z,50.73
2019-04-07T00:15:37.790Z,48.48
2019-04-07T00:18:05.219Z,49.77
2019-04-07T00:20:32.588Z,50.78
2019-04-07T00:23:00.230Z,49.98
2019-04-07T00:25:27.675Z,51.88
2019-04-07T00:27:54.832Z,52.75
2019-04-07T00:30:22.457Z,51.45
2019-04-07T00:32:50.979Z,58.55
2019-04-07T00:35:26.501Z,52.27
2019-04-07T00:37:48.241Z,56.40
2019-04-07T00:40:15.558Z,50.65
2019-04-07T00:42:42.898Z,48.00
2019-04-07T00:45:10.745Z,52.23
2019-04-07T00:47:38.155Z,51.30
2019-04-07T00:50:06.552Z,49.80
2019-04-07T00:52:34.046Z,49.05
2019-04-07T00:55:01.499Z,47.95
2019-04-07T01:00:11.753Z,47.00
2019-04-07T01:02:39.851Z,48.17
2019-04-07T01:05:09.566Z,53.63
2019-04-07T01:07:36.605Z,48.95
2019-04-07T01:10:04.080Z,45.98
2019-04-07T01:12:31.312Z,49.85
2019-04-07T01:14:58.748Z,48.08
2019-04-07T01:17:25.866Z,46.10
2019-04-07T01:19:53.553Z,48.30
2019-04-07T01:22:20.942Z,47.08
2019-04-07T01:24:48.448Z,47.67
2019-04-07T01:27:15.768Z,45.60
2019-04-07T01:29:43.137Z,50.28
2019-04-07T01:32:11.297Z,46.20
2019-04-07T01:34:38.565Z,51.35
2019-04-07T01:37:05.693Z,47.62
2019-04-07T01:39:33.656Z,50.78
2019-04-07T01:42:21.308Z,50.95
2019-04-07T01:45:07.410Z,52.43
2019-04-07T01:47:47.521Z,47.13
2019-04-07T01:50:22.053Z,49.90
2019-04-07T01:53:16.479Z,48.05
2019-04-07T01:56:06.368Z,50.67
2019-04-07T01:58:51.518Z,48.78
2019-04-07T02:01:27.398Z,48.10
2019-04-07T02:04:05.938Z,48.70
2019-04-07T02:06:51.870Z,48.35
2019-04-07T02:09:41.873Z,46.85
2019-04-07T02:12:27.672Z,50.45
2019-04-07T02:15:02.437Z,47.23
2019-04-07T02:18:02.390Z,49.45
2019-04-07T02:21:16.160Z,44.83
2019-04-07T02:24:01.576Z,44.80
2019-04-07T02:26:48.737Z,44.05
2019-04-07T02:29:41.065Z,43.35
2019-04-07T02:32:17.550Z,45.43
2019-04-07T02:35:09.383Z,47.65
2019-04-07T02:37:44.171Z,48.08
2019-04-07T02:40:31.343Z,46.15
2019-04-07T02:43:21.121Z,43.83
2019-04-07T02:45:56.636Z,45.40
2019-04-07T02:48:38.154Z,44.08
2019-04-07T02:51:24.353Z,48.60
2019-04-07T02:54:09.298Z,44.08
2019-04-07T02:57:08.203Z,49.00
2019-04-07T02:59:54.333Z,45.85
2019-04-07T03:02:34.552Z,45.15
2019-04-07T03:05:15.555Z,48.70
2019-04-07T03:07:56.010Z,44.93
2019-04-07T03:10:41.730Z,43.85
2019-04-07T03:13:40.155Z,43.73
2019-04-07T03:16:23.302Z,45.95
2019-04-07T03:19:13.206Z,43.75
2019-04-07T03:21:59.568Z,49.23
2019-04-07T03:24:46.343Z,47.90
2019-04-07T03:27:42.269Z,46.65
2019-04-07T03:30:17.796Z,47.48
2019-04-07T03:33:02.169Z,46.00
2019-04-07T03:35:34.850Z,49.93
2019-04-07T03:38:33.998Z,46.25
2019-04-07T03:41:35.022Z,46.85
2019-04-07T03:44:29.024Z,57.62
2019-04-07T03:47:03.369Z,50.63
2019-04-07T03:49:37.934Z,51.33
2019-04-07T03:52:30.856Z,47.17
2019-04-07T03:55:11.199Z,50.33
2019-04-07T03:57:57.016Z,46.58
2019-04-07T04:01:10.241Z,51.88
2019-04-07T04:03:44.045Z,49.18
2019-04-07T04:06:26.451Z,45.75
2019-04-07T04:09:00.469Z,45.28
2019-04-07T04:11:41.430Z,51.75
2019-04-07T04:14:31.339Z,47.98
2019-04-07T04:16:58.477Z,45.78
2019-04-07T04:19:27.029Z,52.30
2019-04-07T04:21:54.389Z,51.37
2019-04-07T04:24:21.580Z,48.35
2019-04-07T04:26:49.993Z,48.98
2019-04-07T04:29:17.298Z,51.63
2019-04-07T04:31:44.381Z,49.58
2019-04-07T04:34:12.024Z,50.12
2019-04-07T04:36:40.332Z,50.92
2019-04-07T04:39:08.353Z,46.68
2019-04-07T04:41:36.293Z,47.10
2019-04-07T04:44:04.271Z,45.52
2019-04-07T04:46:32.645Z,46.88
2019-04-07T04:48:59.883Z,46.37
2019-04-07T04:51:28.233Z,48.42
2019-04-07T04:53:56.303Z,49.35
2019-04-07T04:56:24.276Z,47.27
2019-04-07T04:58:51.951Z,48.20
2019-04-07T05:01:19.076Z,48.48
2019-04-07T05:03:46.245Z,50.60
2019-04-07T05:06:14.374Z,47.00
2019-04-07T05:08:41.548Z,48.20
2019-04-07T05:11:09.127Z,48.65
2019-04-07T05:13:36.154Z,48.38
2019-04-07T05:16:03.731Z,49.10
2019-04-07T05:18:32.303Z,46.37
2019-04-07T05:20:59.765Z,46.30
2019-04-07T05:23:27.179Z,54.58
2019-04-07T05:25:54.497Z,48.13
2019-04-07T05:28:21.653Z,47.13
2019-04-07T05:30:48.993Z,45.95
2019-04-07T05:33:16.578Z,50.78
2019-04-07T05:35:44.177Z,46.70
2019-04-07T05:38:11.365Z,45.67
2019-04-07T05:40:38.568Z,44.20
2019-04-07T05:43:06.231Z,44.80
2019-04-07T05:45:33.778Z,45.48
2019-04-07T05:48:03.244Z,46.88
2019-04-07T05:50:30.735Z,44.08
2019-04-07T05:52:58.720Z,43.78
2019-04-07T05:55:26.001Z,45.23
2019-04-07T05:57:54.178Z,42.10
2019-04-07T06:00:21.839Z,46.50
2019-04-07T06:02:49.267Z,47.13
2019-04-07T06:05:17.738Z,44.93
2019-04-07T06:07:45.876Z,46.95
2019-04-07T06:10:13.535Z,43.52
2019-04-07T06:12:43.914Z,43.63
2019-04-07T06:15:10.834Z,42.48
2019-04-07T06:17:37.984Z,45.90
2019-04-07T06:20:05.312Z,47.75
2019-04-07T06:22:32.791Z,41.33
2019-04-07T06:25:02.418Z,46.73
2019-04-07T06:27:30.545Z,45.25
2019-04-07T06:30:00.030Z,47.05
2019-04-07T06:32:26.900Z,44.33
2019-04-07T06:34:54.047Z,43.60
2019-04-07T06:37:25.794Z,42.80
2019-04-07T06:39:51.646Z,43.45
2019-04-07T06:42:19.640Z,42.55
2019-04-07T06:44:50.117Z,48.52
2019-04-07T06:47:20.527Z,38.75
2019-04-07T06:50:15.696Z,43.75
2019-04-07T06:52:50.946Z,44.08
2019-04-07T06:55:28.001Z,45.08
2019-04-07T06:58:13.678Z,41.77
2019-04-07T07:00:55.062Z,43.38
2019-04-07T07:03:38.839Z,45.23
2019-04-07T07:06:16.582Z,43.55
2019-04-07T07:08:58.205Z,44.15
2019-04-07T07:11:40.723Z,42.27
2019-04-07T07:14:32.913Z,39.98
2019-04-07T07:17:07.505Z,40.90
2019-04-07T07:20:03.579Z,45.30
2019-04-07T07:22:52.639Z,44.25
2019-04-07T07:25:20.446Z,43.78
2019-04-07T07:27:48.750Z,39.48
2019-04-07T07:30:19.049Z,40.80
2019-04-07T07:32:45.236Z,43.25
2019-04-07T07:35:14.397Z,44.93
2019-04-07T07:37:41.783Z,38.63
2019-04-07T07:40:10.004Z,35.13
2019-04-07T07:42:37.742Z,40.17
2019-04-07T07:45:10.886Z,38.75
2019-04-07T07:47:36.281Z,36.93
2019-04-07T07:50:05.410Z,41.70
2019-04-07T07:52:34.176Z,41.28
2019-04-07T07:55:02.742Z,40.60
2019-04-07T07:57:30.539Z,38.88
2019-04-07T07:59:58.533Z,40.98
2019-04-07T08:02:28.408Z,36.35
2019-04-07T08:04:57.914Z,35.00
2019-04-07T08:07:24.730Z,47.60
2019-04-07T08:09:54.352Z,35.58
2019-04-07T08:12:22.687Z,35.35
2019-04-07T08:14:53.979Z,36.80
2019-04-07T08:17:19.329Z,35.70
2019-04-07T08:19:46.704Z,36.17
2019-04-07T08:22:25.385Z,33.75
2019-04-07T08:24:43.843Z,32.75
2019-04-07T08:27:11.486Z,35.35
2019-04-07T08:29:39.794Z,35.08
2019-04-07T08:32:07.711Z,32.08
2019-04-07T08:34:35.051Z,36.10
2019-04-07T08:37:03.507Z,30.27
2019-04-07T08:39:34.094Z,31.15
2019-04-07T08:42:01.153Z,31.68
2019-04-07T08:44:29.680Z,31.50
2019-04-07T08:46:58.203Z,28.92
2019-04-07T08:49:26.058Z,30.45
2019-04-07T08:51:53.946Z,33.20
2019-04-07T08:54:21.489Z,29.70
2019-04-07T08:56:48.707Z,32.60
2019-04-07T08:59:17.063Z,28.73
2019-04-07T09:01:44.724Z,34.55
2019-04-07T09:04:15.126Z,32.60
2019-04-07T09:06:41.342Z,31.48
2019-04-07T09:09:08.998Z,29.65
2019-04-07T09:11:39.130Z,28.15
2019-04-07T09:14:08.007Z,34.63
2019-04-07T09:16:44.702Z,54.80
2019-04-07T09:19:21.271Z,43.25
2019-04-07T09:22:14.226Z,35.38
2019-04-07T09:24:57.848Z,39.18
2019-04-07T09:27:35.355Z,33.80
2019-04-07T09:30:22.448Z,31.57
2019-04-07T09:33:04.304Z,32.53
2019-04-07T09:35:42.465Z,33.73
2019-04-07T09:38:49.981Z,30.85
2019-04-07T09:41:29.759Z,30.12
2019-04-07T09:44:05.236Z,32.13
2019-04-07T09:46:51.445Z,30.15
2019-04-07T09:49:36.597Z,31.57
2019-04-07T09:52:16.814Z,33.70
2019-04-07T09:54:52.941Z,28.50
2019-04-07T09:57:54.918Z,26.77
2019-04-07T10:00:35.278Z,23.80
2019-04-07T10:03:25.121Z,27.75
2019-04-07T10:06:03.628Z,23.42
2019-04-07T10:08:36.379Z,22.55
2019-04-07T10:11:22.035Z,21.35
2019-04-07T10:14:11.607Z,24.55
2019-04-07T10:16:47.338Z,21.35
2019-04-07T10:19:37.430Z,18.00
2019-04-07T10:22:23.026Z,15.90
2019-04-07T10:24:59.085Z,17.65
2019-04-07T10:27:44.100Z,18.12
2019-04-07T10:30:34.965Z,19.40
2019-04-07T10:33:20.334Z,16.73
2019-04-07T10:36:06.031Z,22.80
2019-04-07T10:38:52.291Z,25.52
2019-04-07T10:41:33.135Z,21.25
2019-04-07T10:44:14.995Z,30.37
2019-04-07T10:47:00.420Z,15.68
2019-04-07T10:49:36.225Z,23.40
2019-04-07T10:52:21.966Z,17.90
2019-04-07T10:55:11.311Z,16.87
2019-04-07T10:58:04.297Z,19.57
2019-04-07T11:00:58.603Z,14.35
2019-04-07T11:03:45.834Z,12.95
2019-04-07T11:06:41.756Z,15.23
2019-04-07T11:09:47.525Z,17.23
2019-04-07T11:12:33.344Z,15.38
2019-04-07T11:15:20.308Z,13.62
2019-04-07T11:18:06.502Z,13.85
2019-04-07T11:20:58.164Z,15.23
2019-04-07T11:23:45.541Z,13.83
2019-04-07T11:26:45.414Z,29.07
2019-04-07T11:29:31.441Z,45.75
2019-04-07T11:32:08.647Z,53.35
2019-04-07T11:34:44.369Z,57.45
2019-04-07T11:37:30.691Z,18.32
2019-04-07T11:40:08.279Z,17.23
2019-04-07T11:42:55.742Z,16.65
2019-04-07T11:45:54.043Z,15.98
2019-04-07T11:48:25.802Z,14.63
2019-04-07T11:51:24.833Z,16.10
2019-04-07T11:53:57.770Z,17.70
2019-04-07T11:56:49.197Z,15.08
2019-04-07T11:59:34.951Z,16.52
2019-04-07T12:02:21.751Z,14.70
2019-04-07T12:05:12.564Z,15.25
2019-04-07T12:08:08.293Z,15.03
2019-04-07T12:10:56.137Z,13.98
2019-04-07T12:13:26.678Z,15.65
2019-04-07T12:16:08.053Z,15.18
2019-04-07T12:18:42.454Z,13.38
2019-04-07T12:21:20.741Z,15.95
2019-04-07T12:24:09.865Z,16.62
2019-04-07T12:26:49.188Z,13.35
2019-04-07T12:29:27.286Z,14.45
2019-04-07T12:32:08.558Z,14.78
2019-04-07T12:34:52.082Z,15.05
2019-04-07T12:37:44.649Z,17.98
2019-04-07T12:40:34.492Z,15.80
2019-04-07T12:43:27.265Z,16.45
2019-04-07T12:46:15.527Z,15.00
2019-04-07T12:49:05.326Z,14.23
2019-04-07T12:51:57.098Z,16.48
2019-04-07T12:54:37.614Z,14.18
2019-04-07T12:57:19.860Z,12.00
2019-04-07T13:00:05.931Z,12.68
2019-04-07T13:02:59.715Z,14.53
2019-04-07T13:05:36.480Z,12.95
2019-04-07T13:08:32.518Z,18.52
2019-04-07T13:11:24.719Z,223.50
2019-04-07T13:13:48.875Z,19.05
2019-04-07T13:16:25.763Z,12.95
2019-04-07T13:19:24.153Z,16.52
2019-04-07T13:22:10.250Z,13.62
2019-04-07T13:24:48.569Z,14.58
2019-04-07T13:27:40.385Z,14.45
2019-04-07T13:30:28.189Z,12.35
2019-04-07T13:33:16.136Z,16.37
2019-04-07T13:35:53.494Z,15.43
2019-04-07T13:38:44.563Z,14.38
2019-04-07T13:41:37.267Z,15.43
2019-04-07T13:44:11.900Z,16.00
2019-04-07T13:47:08.663Z,27.82
2019-04-07T13:49:48.419Z,27.75
2019-04-07T13:52:27.956Z,13.83
2019-04-07T13:55:06.536Z,12.82
2019-04-07T13:57:47.229Z,14.20
2019-04-07T14:00:46.363Z,12.28
2019-04-07T14:03:25.567Z,12.05
2019-04-07T14:06:14.477Z,14.03
2019-04-07T14:08:52.681Z,12.58
2019-04-07T14:11:29.951Z,14.68
2019-04-07T14:14:17.996Z,15.53
2019-04-07T14:16:58.467Z,13.40
2019-04-07T14:19:37.055Z,15.98
2019-04-07T14:22:13.149Z,12.20
2019-04-07T14:24:54.810Z,16.80
2019-04-07T14:27:31.042Z,20.75
2019-04-07T14:30:24.304Z,19.40
2019-04-07T14:33:10.082Z,14.47
2019-04-07T14:35:58.144Z,16.27
2019-04-07T14:38:40.197Z,13.70
2019-04-07T14:41:26.907Z,12.43
2019-04-07T14:44:04.133Z,13.45
2019-04-07T14:47:00.039Z,17.85
2019-04-07T14:49:47.692Z,16.42
2019-04-07T14:52:30.760Z,15.03
2019-04-07T14:55:15.859Z,17.60
2019-04-07T14:57:52.436Z,16.80
2019-04-07T15:00:29.478Z,15.38
2019-04-07T15:02:57.572Z,16.10
2019-04-07T15:05:29.928Z,17.40
2019-04-07T15:08:22.595Z,15.45
2019-04-07T15:10:52.760Z,18.48
2019-04-07T15:13:25.794Z,14.20
2019-04-07T15:15:51.809Z,15.23
2019-04-07T15:18:21.444Z,15.83
2019-04-07T15:20:54.976Z,14.75
2019-04-07T15:23:22.925Z,16.42
2019-04-07T15:25:51.489Z,15.10
2019-04-07T15:28:19.468Z,16.50
2019-04-07T15:30:48.856Z,14.38
2019-04-07T15:33:16.794Z,15.53
2019-04-07T15:35:47.273Z,15.23
2019-04-07T15:38:14.232Z,16.75
2019-04-07T15:40:42.617Z,15.30
2019-04-07T15:43:11.371Z,18.32
2019-04-07T15:45:39.754Z,15.60
2019-04-07T15:48:08.559Z,14.13
2019-04-07T15:50:35.855Z,19.15
2019-04-07T15:53:03.239Z,16.37
2019-04-07T15:55:43.277Z,13.93
2019-04-07T15:57:59.684Z,13.95
2019-04-07T16:00:28.229Z,12.73
2019-04-07T16:02:55.513Z,13.10
2019-04-07T16:05:22.786Z,14.43
2019-04-07T16:07:53.200Z,17.17
2019-04-07T16:10:21.942Z,13.78
2019-04-07T16:12:52.200Z,26.30
2019-04-07T16:15:18.244Z,12.98
2019-04-07T16:17:47.450Z,13.00
2019-04-07T16:20:23.970Z,14.35
2019-04-07T16:22:47.011Z,15.40
2019-04-07T16:25:14.358Z,14.25
2019-04-07T16:27:42.357Z,19.57
2019-04-07T16:30:10.183Z,12.55
2019-04-07T16:32:37.735Z,12.90
2019-04-07T16:35:05.875Z,13.22
2019-04-07T16:37:33.578Z,12.68
2019-04-07T16:40:03.288Z,14.10
2019-04-07T16:42:30.962Z,12.90
2019-04-07T16:44:58.267Z,14.70
2019-04-07T16:47:29.282Z,13.93
2019-04-07T16:49:54.716Z,15.53
2019-04-07T16:52:22.419Z,21.82
2019-04-07T16:54:50.467Z,26.07
2019-04-07T16:57:18.059Z,27.20
2019-04-07T16:59:45.240Z,24.07
2019-04-07T17:02:14.410Z,22.77
2019-04-07T17:04:41.406Z,19.10
2019-04-07T17:07:13.289Z,23.10
2019-04-07T17:09:37.458Z,21.77
2019-04-07T17:12:04.748Z,20.37
2019-04-07T17:14:35.069Z,19.80
2019-04-07T17:17:00.934Z,20.77
2019-04-07T17:19:28.755Z,20.30
2019-04-07T17:21:55.883Z,21.75
2019-04-07T17:24:28.561Z,22.02
2019-04-07T17:26:52.917Z,20.62
2019-04-07T17:29:22.104Z,19.25
2019-04-07T17:31:50.821Z,20.17
2019-04-07T17:34:18.508Z,19.45
2019-04-07T17:36:48.904Z,21.68
2019-04-07T17:39:40.596Z,19.90
2019-04-07T17:42:12.209Z,22.50
2019-04-07T17:44:49.951Z,23.62
2019-04-07T17:47:32.795Z,20.65
2019-04-07T17:50:20.044Z,24.50
2019-04-07T17:52:58.118Z,16.85
2019-04-07T17:55:48.100Z,17.52
2019-04-07T17:58:38.116Z,19.45
2019-04-07T18:01:20.587Z,23.15
2019-04-07T18:04:05.604Z,19.37
2019-04-07T18:06:50.914Z,21.00
2019-04-07T18:09:35.092Z,18.12
2019-04-07T18:12:27.055Z,24.12
2019-04-07T18:15:14.763Z,20.55
2019-04-07T18:18:24.020Z,21.80
2019-04-07T18:21:00.749Z,20.23
2019-04-07T18:23:53.947Z,22.22
2019-04-07T18:26:25.158Z,22.15
2019-04-07T18:29:01.873Z,19.30
2019-04-07T18:31:43.878Z,17.90
2019-04-07T18:34:35.255Z,21.23
2019-04-07T18:37:18.751Z,25.50
2019-04-07T18:40:02.439Z,19.70
2019-04-07T18:42:52.200Z,22.77
2019-04-07T18:45:41.542Z,24.50
2019-04-07T18:48:28.859Z,21.77
2019-04-07T18:51:13.228Z,20.05
2019-04-07T18:53:50.744Z,20.10
2019-04-07T18:56:29.178Z,21.70
2019-04-07T18:59:18.210Z,20.00
2019-04-07T19:02:11.048Z,21.27
2019-04-07T19:04:58.111Z,19.05
2019-04-07T19:07:45.878Z,19.87
2019-04-07T19:10:38.944Z,19.62
2019-04-07T19:13:27.419Z,22.82
2019-04-07T19:16:13.543Z,20.75
2019-04-07T19:19:09.465Z,22.77
2019-04-07T19:22:08.849Z,20.70
2019-04-07T19:25:10.854Z,21.07
2019-04-07T19:28:09.392Z,26.07
2019-04-07T19:31:02.484Z,22.15
2019-04-07T19:33:56.647Z,26.27
2019-04-07T19:36:49.862Z,24.27
2019-04-07T19:39:26.363Z,19.42
2019-04-07T19:42:21.892Z,19.65
2019-04-07T19:45:09.139Z,19.50
2019-04-07T19:48:10.082Z,20.57
2019-04-07T19:51:00.054Z,21.68
2019-04-07T19:53:43.276Z,24.57
2019-04-07T19:56:19.122Z,21.73
2019-04-07T19:59:12.779Z,20.75
2019-04-07T20:01:48.301Z,17.40
2019-04-07T20:04:35.455Z,19.80
2019-04-07T20:07:13.930Z,21.57
2019-04-07T20:09:49.170Z,17.00
2019-04-07T20:12:27.146Z,15.75
2019-04-07T20:15:09.153Z,17.02
2019-04-07T20:18:14.538Z,16.57
2019-04-07T20:21:08.755Z,20.90
2019-04-07T20:24:04.334Z,18.07
2019-04-07T20:26:51.917Z,20.60
2019-04-07T20:29:31.564Z,19.82
2019-04-07T20:32:23.347Z,17.95
2019-04-07T20:35:18.650Z,19.75
2019-04-07T20:38:27.336Z,18.15
2019-04-07T20:41:16.190Z,18.20
2019-04-07T20:44:13.166Z,18.25
2019-04-07T20:47:00.412Z,17.67
2019-04-07T20:49:51.697Z,16.95
2019-04-07T20:52:40.504Z,17.90
2019-04-07T20:55:29.038Z,17.50
2019-04-07T20:58:21.906Z,16.12
2019-04-07T21:01:22.581Z,18.62
2019-04-07T21:04:08.887Z,18.65
2019-04-07T21:07:03.533Z,16.42
2019-04-07T21:09:46.784Z,16.70
2019-04-07T21:12:31.014Z,16.30
2019-04-07T21:15:18.438Z,16.23
2019-04-07T21:18:04.175Z,14.23
2019-04-07T21:20:51.124Z,16.48
2019-04-07T21:23:41.246Z,16.48
2019-04-07T21:26:29.850Z,15.58
2019-04-07T21:29:16.105Z,16.75
2019-04-07T21:32:01.431Z,17.37
2019-04-07T21:34:48.297Z,17.48
2019-04-07T21:37:33.785Z,16.80
2019-04-07T21:40:13.219Z,17.77
2019-04-07T21:42:54.117Z,17.17
2019-04-07T21:45:54.175Z,19.50
2019-04-07T21:48:45.694Z,18.73
2019-04-07T21:51:29.048Z,18.45
2019-04-07T21:54:24.705Z,17.32
2019-04-07T21:57:14.007Z,16.48
2019-04-07T21:59:52.109Z,19.12
2019-04-07T22:02:40.653Z,16.57
2019-04-07T22:05:24.034Z,21.10
2019-04-07T22:08:09.570Z,17.40
2019-04-07T22:10:32.404Z,20.37
2019-04-07T22:13:03.426Z,24.18
2019-04-07T22:15:42.168Z,18.95
2019-04-07T22:17:58.356Z,28.85
2019-04-07T22:20:25.567Z,19.75
2019-04-07T22:22:56.454Z,19.00
2019-04-07T22:25:36.163Z,18.90
2019-04-07T22:28:04.096Z,21.30
2019-04-07T22:30:34.015Z,20.23
2019-04-07T22:33:01.950Z,19.90
2019-04-07T22:35:29.418Z,20.17
2019-04-07T22:37:56.954Z,18.67
2019-04-07T22:40:26.647Z,19.60
2019-04-07T22:42:54.144Z,21.27
2019-04-07T22:45:25.306Z,31.00
2019-04-07T22:47:52.435Z,19.87
2019-04-07T22:50:19.782Z,20.68
2019-04-07T22:52:50.387Z,22.13
2019-04-07T22:55:16.519Z,20.05
2019-04-07T22:57:44.154Z,20.35
2019-04-07T23:00:21.261Z,21.77
2019-04-07T23:02:49.767Z,21.97
2019-04-07T23:05:17.063Z,24.27
2019-04-07T23:07:45.937Z,22.67
2019-04-07T23:10:13.371Z,19.95
2019-04-07T23:12:41.139Z,21.17
2019-04-07T23:15:09.605Z,20.82
2019-04-07T23:17:36.779Z,23.18
2019-04-07T23:20:06.453Z,22.90
2019-04-07T23:22:34.010Z,22.50
2019-04-07T23:25:01.652Z,20.95
2019-04-07T23:27:29.671Z,20.45
2019-04-07T23:29:57.018Z,24.32
2019-04-07T23:32:24.128Z,22.52
2019-04-07T23:34:52.012Z,21.07
2019-04-07T23:37:19.235Z,21.82
2019-04-07T23:39:46.414Z,20.70
2019-04-07T23:42:14.321Z,24.40
2019-04-07T23:44:41.858Z,19.73
2019-04-07T23:47:08.911Z,22.17
2019-04-07T23:49:36.309Z,22.52
2019-04-07T23:52:03.560Z,25.30
2019-04-07T23:54:31.799Z,25.37
2019-04-07T23:56:59.164Z,23.05
2019-04-07T23:59:26.974Z,23.30
